sensor_id;sensor_type;location;lat;lon;timestamp;P1;durP1;ratioP1;P2;durP2;ratioP2
51862;SDS011;37900;52.996;6.278;2023-09-08T00:00:57;4.90;;;4.40;;
51862;SDS011;37900;52.996;6.278;2023-09-08T00:03:23;4.80;;;3.97;;
51862;SDS011;37900;52.996;6.278;2023-09-08T00:05:48;5.18;;;4.63;;
51862;SDS011;37900;52.996;6.278;2023-09-08T00:08:14;5.82;;;4.28;;
51862;SDS011;37900;52.996;6.278;2023-09-08T00:10:40;4.32;;;3.92;;
51862;SDS011;37900;52.996;6.278;2023-09-08T00:13:07;4.70;;;4.18;;
51862;SDS011;37900;52.996;6.278;2023-09-08T00:15:33;4.60;;;3.90;;
51862;SDS011;37900;52.996;6.278;2023-09-08T00:18:00;5.07;;;4.35;;
51862;SDS011;37900;52.996;6.278;2023-09-08T00:20:26;4.60;;;4.20;;
51862;SDS011;37900;52.996;6.278;2023-09-08T00:22:51;4.55;;;4.15;;
51862;SDS011;37900;52.996;6.278;2023-09-08T00:25:17;5.07;;;4.57;;
51862;SDS011;37900;52.996;6.278;2023-09-08T00:27:43;5.28;;;4.43;;
51862;SDS011;37900;52.996;6.278;2023-09-08T00:30:09;4.85;;;4.38;;
51862;SDS011;37900;52.996;6.278;2023-09-08T00:32:35;4.95;;;4.45;;
51862;SDS011;37900;52.996;6.278;2023-09-08T00:35:01;4.57;;;4.15;;
51862;SDS011;37900;52.996;6.278;2023-09-08T00:37:27;4.60;;;4.10;;
51862;SDS011;37900;52.996;6.278;2023-09-08T00:39:52;4.32;;;3.92;;
51862;SDS011;37900;52.996;6.278;2023-09-08T00:42:18;5.07;;;4.28;;
51862;SDS011;37900;52.996;6.278;2023-09-08T00:44:44;4.50;;;4.10;;
51862;SDS011;37900;52.996;6.278;2023-09-08T00:47:09;4.65;;;4.20;;
51862;SDS011;37900;52.996;6.278;2023-09-08T00:49:35;5.70;;;4.20;;
51862;SDS011;37900;52.996;6.278;2023-09-08T00:52:01;5.03;;;4.38;;
51862;SDS011;37900;52.996;6.278;2023-09-08T00:54:27;5.10;;;4.60;;
51862;SDS011;37900;52.996;6.278;2023-09-08T00:56:55;4.93;;;4.40;;
51862;SDS011;37900;52.996;6.278;2023-09-08T00:59:22;5.03;;;4.32;;
51862;SDS011;37900;52.996;6.278;2023-09-08T01:04:15;4.20;;;3.80;;
51862;SDS011;37900;52.996;6.278;2023-09-08T01:06:41;4.38;;;3.97;;
51862;SDS011;37900;52.996;6.278;2023-09-08T01:09:07;5.25;;;4.60;;
51862;SDS011;37900;52.996;6.278;2023-09-08T01:11:33;5.00;;;4.50;;
51862;SDS011;37900;52.996;6.278;2023-09-08T01:13:59;6.85;;;4.53;;
51862;SDS011;37900;52.996;6.278;2023-09-08T01:16:25;4.85;;;4.32;;
51862;SDS011;37900;52.996;6.278;2023-09-08T01:18:50;5.03;;;4.53;;
51862;SDS011;37900;52.996;6.278;2023-09-08T01:27:10;5.03;;;4.18;;
51862;SDS011;37900;52.996;6.278;2023-09-08T01:29:39;3.90;;;3.55;;
51862;SDS011;37900;52.996;6.278;2023-09-08T01:32:06;4.47;;;4.07;;
51862;SDS011;37900;52.996;6.278;2023-09-08T01:34:33;5.50;;;4.30;;
51862;SDS011;37900;52.996;6.278;2023-09-08T01:37:01;4.90;;;4.40;;
51862;SDS011;37900;52.996;6.278;2023-09-08T01:39:29;4.28;;;3.88;;
51862;SDS011;37900;52.996;6.278;2023-09-08T01:41:55;4.20;;;3.80;;
51862;SDS011;37900;52.996;6.278;2023-09-08T01:44:21;4.60;;;4.20;;
51862;SDS011;37900;52.996;6.278;2023-09-08T01:46:46;5.18;;;3.92;;
51862;SDS011;37900;52.996;6.278;2023-09-08T01:49:12;4.28;;;3.88;;
51862;SDS011;37900;52.996;6.278;2023-09-08T01:51:38;4.50;;;4.10;;
51862;SDS011;37900;52.996;6.278;2023-09-08T01:54:04;4.82;;;4.15;;
51862;SDS011;37900;52.996;6.278;2023-09-08T01:56:30;4.60;;;3.90;;
51862;SDS011;37900;52.996;6.278;2023-09-08T01:58:55;4.82;;;4.35;;
51862;SDS011;37900;52.996;6.278;2023-09-08T02:01:21;4.22;;;3.83;;
51862;SDS011;37900;52.996;6.278;2023-09-08T02:03:47;5.35;;;4.40;;
51862;SDS011;37900;52.996;6.278;2023-09-08T02:06:12;4.60;;;4.18;;
51862;SDS011;37900;52.996;6.278;2023-09-08T02:08:38;4.82;;;4.43;;
51862;SDS011;37900;52.996;6.278;2023-09-08T02:11:04;6.82;;;4.18;;
51862;SDS011;37900;52.996;6.278;2023-09-08T02:13:30;4.80;;;4.25;;
51862;SDS011;37900;52.996;6.278;2023-09-08T02:15:56;5.30;;;4.50;;
51862;SDS011;37900;52.996;6.278;2023-09-08T02:18:21;4.28;;;3.88;;
51862;SDS011;37900;52.996;6.278;2023-09-08T02:20:48;4.28;;;3.75;;
51862;SDS011;37900;52.996;6.278;2023-09-08T02:23:13;5.25;;;4.53;;
51862;SDS011;37900;52.996;6.278;2023-09-08T02:25:39;4.47;;;4.07;;
51862;SDS011;37900;52.996;6.278;2023-09-08T02:28:05;5.60;;;3.65;;
51862;SDS011;37900;52.996;6.278;2023-09-08T02:30:31;4.80;;;4.32;;
51862;SDS011;37900;52.996;6.278;2023-09-08T02:32:56;4.55;;;4.15;;
51862;SDS011;37900;52.996;6.278;2023-09-08T02:35:25;4.68;;;4.28;;
51862;SDS011;37900;52.996;6.278;2023-09-08T02:37:51;4.45;;;4.05;;
51862;SDS011;37900;52.996;6.278;2023-09-08T02:40:16;4.53;;;4.13;;
51862;SDS011;37900;52.996;6.278;2023-09-08T02:42:43;4.70;;;4.30;;
51862;SDS011;37900;52.996;6.278;2023-09-08T02:45:09;4.50;;;4.10;;
51862;SDS011;37900;52.996;6.278;2023-09-08T02:47:35;4.70;;;4.18;;
51862;SDS011;37900;52.996;6.278;2023-09-08T02:50:00;4.53;;;4.13;;
51862;SDS011;37900;52.996;6.278;2023-09-08T02:52:28;5.15;;;4.50;;
51862;SDS011;37900;52.996;6.278;2023-09-08T02:54:53;4.68;;;4.22;;
51862;SDS011;37900;52.996;6.278;2023-09-08T02:57:19;4.82;;;4.30;;
51862;SDS011;37900;52.996;6.278;2023-09-08T02:59:48;4.35;;;3.92;;
51862;SDS011;37900;52.996;6.278;2023-09-08T03:02:16;4.72;;;4.22;;
51862;SDS011;37900;52.996;6.278;2023-09-08T03:04:41;4.70;;;4.20;;
51862;SDS011;37900;52.996;6.278;2023-09-08T03:07:07;4.93;;;4.43;;
51862;SDS011;37900;52.996;6.278;2023-09-08T03:09:33;4.03;;;3.55;;
51862;SDS011;37900;52.996;6.278;2023-09-08T03:12:01;4.95;;;4.38;;
51862;SDS011;37900;52.996;6.278;2023-09-08T03:14:27;5.05;;;4.45;;
51862;SDS011;37900;52.996;6.278;2023-09-08T03:16:53;4.75;;;4.32;;
51862;SDS011;37900;52.996;6.278;2023-09-08T03:19:18;4.47;;;4.07;;
51862;SDS011;37900;52.996;6.278;2023-09-08T03:21:44;4.57;;;4.18;;
51862;SDS011;37900;52.996;6.278;2023-09-08T03:24:10;4.78;;;4.22;;
51862;SDS011;37900;52.996;6.278;2023-09-08T03:26:35;4.30;;;3.90;;
51862;SDS011;37900;52.996;6.278;2023-09-08T03:29:01;4.43;;;4.03;;
51862;SDS011;37900;52.996;6.278;2023-09-08T03:31:27;4.18;;;3.78;;
51862;SDS011;37900;52.996;6.278;2023-09-08T03:33:52;4.53;;;3.97;;
51862;SDS011;37900;52.996;6.278;2023-09-08T03:36:18;4.07;;;3.67;;
51862;SDS011;37900;52.996;6.278;2023-09-08T03:38:44;4.60;;;4.20;;
51862;SDS011;37900;52.996;6.278;2023-09-08T03:41:09;4.53;;;4.13;;
51862;SDS011;37900;52.996;6.278;2023-09-08T03:43:36;4.57;;;4.17;;
51862;SDS011;37900;52.996;6.278;2023-09-08T03:46:01;4.97;;;4.47;;
51862;SDS011;37900;52.996;6.278;2023-09-08T03:48:27;4.47;;;4.05;;
51862;SDS011;37900;52.996;6.278;2023-09-08T03:50:53;4.80;;;4.40;;
51862;SDS011;37900;52.996;6.278;2023-09-08T03:53:18;4.35;;;3.92;;
51862;SDS011;37900;52.996;6.278;2023-09-08T03:55:44;4.65;;;4.25;;
51862;SDS011;37900;52.996;6.278;2023-09-08T03:58:10;4.60;;;4.15;;
51862;SDS011;37900;52.996;6.278;2023-09-08T04:00:36;4.78;;;4.22;;
51862;SDS011;37900;52.996;6.278;2023-09-08T04:03:02;4.90;;;4.28;;
51862;SDS011;37900;52.996;6.278;2023-09-08T04:05:28;4.72;;;4.22;;
51862;SDS011;37900;52.996;6.278;2023-09-08T04:07:53;4.47;;;4.07;;
51862;SDS011;37900;52.996;6.278;2023-09-08T04:10:19;4.32;;;3.92;;
51862;SDS011;37900;52.996;6.278;2023-09-08T04:12:45;4.03;;;3.63;;
51862;SDS011;37900;52.996;6.278;2023-09-08T04:15:11;4.00;;;3.60;;
51862;SDS011;37900;52.996;6.278;2023-09-08T04:17:37;4.47;;;3.63;;
51862;SDS011;37900;52.996;6.278;2023-09-08T04:20:03;4.88;;;3.60;;
51862;SDS011;37900;52.996;6.278;2023-09-08T04:22:30;4.68;;;4.03;;
51862;SDS011;37900;52.996;6.278;2023-09-08T04:24:57;4.75;;;4.25;;
51862;SDS011;37900;52.996;6.278;2023-09-08T04:27:23;4.15;;;3.78;;
51862;SDS011;37900;52.996;6.278;2023-09-08T04:29:49;4.30;;;3.90;;
51862;SDS011;37900;52.996;6.278;2023-09-08T04:32:14;4.95;;;3.97;;
51862;SDS011;37900;52.996;6.278;2023-09-08T04:34:40;4.78;;;4.28;;
51862;SDS011;37900;52.996;6.278;2023-09-08T04:37:07;3.97;;;3.65;;
51862;SDS011;37900;52.996;6.278;2023-09-08T04:39:34;4.63;;;4.13;;
51862;SDS011;37900;52.996;6.278;2023-09-08T04:42:02;4.40;;;3.97;;
51862;SDS011;37900;52.996;6.278;2023-09-08T04:44:28;4.43;;;4.03;;
51862;SDS011;37900;52.996;6.278;2023-09-08T04:46:54;4.55;;;4.15;;
51862;SDS011;37900;52.996;6.278;2023-09-08T04:49:20;4.18;;;3.63;;
51862;SDS011;37900;52.996;6.278;2023-09-08T04:51:45;4.68;;;4.18;;
51862;SDS011;37900;52.996;6.278;2023-09-08T04:54:11;3.88;;;3.47;;
51862;SDS011;37900;52.996;6.278;2023-09-08T04:56:40;4.90;;;3.90;;
51862;SDS011;37900;52.996;6.278;2023-09-08T04:59:06;4.65;;;4.25;;
51862;SDS011;37900;52.996;6.278;2023-09-08T05:01:32;4.40;;;3.78;;
51862;SDS011;37900;52.996;6.278;2023-09-08T05:04:01;4.18;;;3.78;;
51862;SDS011;37900;52.996;6.278;2023-09-08T05:06:27;4.43;;;4.03;;
51862;SDS011;37900;52.996;6.278;2023-09-08T05:08:52;4.38;;;3.97;;
51862;SDS011;37900;52.996;6.278;2023-09-08T05:11:18;5.50;;;4.82;;
51862;SDS011;37900;52.996;6.278;2023-09-08T05:13:44;4.55;;;4.15;;
51862;SDS011;37900;52.996;6.278;2023-09-08T05:16:13;4.63;;;4.22;;
51862;SDS011;37900;52.996;6.278;2023-09-08T05:18:39;4.55;;;4.13;;
51862;SDS011;37900;52.996;6.278;2023-09-08T05:21:05;4.40;;;3.93;;
51862;SDS011;37900;52.996;6.278;2023-09-08T05:23:31;4.30;;;3.85;;
51862;SDS011;37900;52.996;6.278;2023-09-08T05:25:57;4.80;;;4.10;;
51862;SDS011;37900;52.996;6.278;2023-09-08T05:28:23;4.47;;;4.07;;
51862;SDS011;37900;52.996;6.278;2023-09-08T05:30:52;4.40;;;4.00;;
51862;SDS011;37900;52.996;6.278;2023-09-08T05:33:19;4.22;;;3.83;;
51862;SDS011;37900;52.996;6.278;2023-09-08T05:35:44;4.97;;;3.90;;
51862;SDS011;37900;52.996;6.278;2023-09-08T05:38:11;4.22;;;3.83;;
51862;SDS011;37900;52.996;6.278;2023-09-08T05:40:36;4.60;;;4.13;;
51862;SDS011;37900;52.996;6.278;2023-09-08T05:43:03;4.70;;;3.90;;
51862;SDS011;37900;52.996;6.278;2023-09-08T05:45:31;4.17;;;3.77;;
51862;SDS011;37900;52.996;6.278;2023-09-08T05:47:57;4.00;;;3.60;;
51862;SDS011;37900;52.996;6.278;2023-09-08T05:50:23;4.00;;;3.60;;
51862;SDS011;37900;52.996;6.278;2023-09-08T05:52:49;4.30;;;3.90;;
51862;SDS011;37900;52.996;6.278;2023-09-08T05:55:16;4.22;;;3.63;;
51862;SDS011;37900;52.996;6.278;2023-09-08T05:57:41;4.20;;;3.80;;
51862;SDS011;37900;52.996;6.278;2023-09-08T06:00:07;4.53;;;3.75;;
51862;SDS011;37900;52.996;6.278;2023-09-08T06:02:33;4.10;;;3.70;;
51862;SDS011;37900;52.996;6.278;2023-09-08T06:04:59;4.90;;;4.10;;
51862;SDS011;37900;52.996;6.278;2023-09-08T06:07:25;4.97;;;3.85;;
51862;SDS011;37900;52.996;6.278;2023-09-08T06:09:51;4.38;;;3.85;;
51862;SDS011;37900;52.996;6.278;2023-09-08T06:12:16;4.30;;;3.90;;
51862;SDS011;37900;52.996;6.278;2023-09-08T06:14:42;4.63;;;4.22;;
51862;SDS011;37900;52.996;6.278;2023-09-08T06:17:09;4.53;;;4.07;;
51862;SDS011;37900;52.996;6.278;2023-09-08T06:19:35;4.88;;;4.38;;
51862;SDS011;37900;52.996;6.278;2023-09-08T06:22:01;4.57;;;3.90;;
51862;SDS011;37900;52.996;6.278;2023-09-08T06:24:26;4.55;;;3.90;;
51862;SDS011;37900;52.996;6.278;2023-09-08T06:26:52;4.40;;;4.00;;
51862;SDS011;37900;52.996;6.278;2023-09-08T06:29:18;4.35;;;3.95;;
51862;SDS011;37900;52.996;6.278;2023-09-08T06:31:43;4.10;;;3.70;;
51862;SDS011;37900;52.996;6.278;2023-09-08T06:34:09;5.05;;;4.43;;
51862;SDS011;37900;52.996;6.278;2023-09-08T06:36:35;4.78;;;4.13;;
51862;SDS011;37900;52.996;6.278;2023-09-08T06:39:01;3.78;;;3.45;;
51862;SDS011;37900;52.996;6.278;2023-09-08T06:43:54;4.30;;;3.90;;
51862;SDS011;37900;52.996;6.278;2023-09-08T06:46:19;5.53;;;4.20;;
51862;SDS011;37900;52.996;6.278;2023-09-08T06:48:45;5.15;;;3.75;;
51862;SDS011;37900;52.996;6.278;2023-09-08T06:51:11;3.90;;;3.50;;
51862;SDS011;37900;52.996;6.278;2023-09-08T06:53:37;4.25;;;3.70;;
51862;SDS011;37900;52.996;6.278;2023-09-08T06:56:02;4.55;;;4.15;;
51862;SDS011;37900;52.996;6.278;2023-09-08T06:58:28;4.40;;;4.00;;
51862;SDS011;37900;52.996;6.278;2023-09-08T07:00:54;4.05;;;3.65;;
51862;SDS011;37900;52.996;6.278;2023-09-08T07:03:20;4.38;;;3.97;;
51862;SDS011;37900;52.996;6.278;2023-09-08T07:05:49;4.30;;;3.53;;
51862;SDS011;37900;52.996;6.278;2023-09-08T07:08:15;7.38;;;4.20;;
51862;SDS011;37900;52.996;6.278;2023-09-08T07:10:43;4.00;;;3.58;;
51862;SDS011;37900;52.996;6.278;2023-09-08T07:13:09;4.90;;;4.40;;
51862;SDS011;37900;52.996;6.278;2023-09-08T07:15:35;4.18;;;3.78;;
51862;SDS011;37900;52.996;6.278;2023-09-08T07:18:01;4.22;;;3.83;;
51862;SDS011;37900;52.996;6.278;2023-09-08T07:20:27;5.28;;;3.70;;
51862;SDS011;37900;52.996;6.278;2023-09-08T07:22:57;4.25;;;3.78;;
51862;SDS011;37900;52.996;6.278;2023-09-08T07:25:22;4.43;;;3.92;;
51862;SDS011;37900;52.996;6.278;2023-09-08T07:27:48;5.00;;;3.90;;
51862;SDS011;37900;52.996;6.278;2023-09-08T07:30:17;4.43;;;4.03;;
51862;SDS011;37900;52.996;6.278;2023-09-08T07:32:43;6.20;;;4.47;;
51862;SDS011;37900;52.996;6.278;2023-09-08T07:35:09;4.57;;;4.18;;
51862;SDS011;37900;52.996;6.278;2023-09-08T07:37:39;5.43;;;4.93;;
51862;SDS011;37900;52.996;6.278;2023-09-08T07:40:06;4.93;;;3.90;;
51862;SDS011;37900;52.996;6.278;2023-09-08T07:42:34;7.75;;;5.10;;
51862;SDS011;37900;52.996;6.278;2023-09-08T07:45:00;7.88;;;6.35;;
51862;SDS011;37900;52.996;6.278;2023-09-08T07:47:26;7.72;;;6.10;;
51862;SDS011;37900;52.996;6.278;2023-09-08T07:49:51;7.70;;;6.13;;
51862;SDS011;37900;52.996;6.278;2023-09-08T07:52:17;9.30;;;6.57;;
51862;SDS011;37900;52.996;6.278;2023-09-08T07:54:43;7.55;;;6.75;;
51862;SDS011;37900;52.996;6.278;2023-09-08T07:57:08;7.90;;;5.65;;
51862;SDS011;37900;52.996;6.278;2023-09-08T07:59:34;6.60;;;5.85;;
51862;SDS011;37900;52.996;6.278;2023-09-08T08:02:00;6.10;;;5.50;;
51862;SDS011;37900;52.996;6.278;2023-09-08T08:04:26;7.35;;;6.10;;
51862;SDS011;37900;52.996;6.278;2023-09-08T08:06:52;7.05;;;6.35;;
51862;SDS011;37900;52.996;6.278;2023-09-08T08:09:17;6.25;;;5.65;;
51862;SDS011;37900;52.996;6.278;2023-09-08T08:11:43;6.63;;;5.63;;
51862;SDS011;37900;52.996;6.278;2023-09-08T08:14:09;7.68;;;6.10;;
51862;SDS011;37900;52.996;6.278;2023-09-08T08:16:35;6.60;;;6.00;;
51862;SDS011;37900;52.996;6.278;2023-09-08T08:19:00;6.13;;;5.53;;
51862;SDS011;37900;52.996;6.278;2023-09-08T08:21:27;5.95;;;5.40;;
51862;SDS011;37900;52.996;6.278;2023-09-08T08:23:52;6.30;;;5.65;;
51862;SDS011;37900;52.996;6.278;2023-09-08T08:26:18;6.10;;;5.50;;
51862;SDS011;37900;52.996;6.278;2023-09-08T08:28:44;7.85;;;5.72;;
51862;SDS011;37900;52.996;6.278;2023-09-08T08:31:10;7.53;;;5.88;;
51862;SDS011;37900;52.996;6.278;2023-09-08T08:33:35;9.05;;;6.25;;
51862;SDS011;37900;52.996;6.278;2023-09-08T08:36:01;8.25;;;5.72;;
51862;SDS011;37900;52.996;6.278;2023-09-08T08:38:28;8.10;;;5.93;;
51862;SDS011;37900;52.996;6.278;2023-09-08T08:40:54;6.50;;;5.65;;
51862;SDS011;37900;52.996;6.278;2023-09-08T08:43:19;6.82;;;5.78;;
51862;SDS011;37900;52.996;6.278;2023-09-08T08:45:48;6.47;;;5.78;;
51862;SDS011;37900;52.996;6.278;2023-09-08T08:48:15;7.78;;;5.95;;
51862;SDS011;37900;52.996;6.278;2023-09-08T08:50:46;6.82;;;5.38;;
51862;SDS011;37900;52.996;6.278;2023-09-08T08:55:39;6.80;;;5.22;;
51862;SDS011;37900;52.996;6.278;2023-09-08T08:58:06;7.85;;;6.20;;
51862;SDS011;37900;52.996;6.278;2023-09-08T09:00:35;7.47;;;5.47;;
51862;SDS011;37900;52.996;6.278;2023-09-08T09:03:04;7.38;;;5.53;;
51862;SDS011;37900;52.996;6.278;2023-09-08T09:05:30;7.15;;;5.68;;
51862;SDS011;37900;52.996;6.278;2023-09-08T09:08:00;6.68;;;5.97;;
51862;SDS011;37900;52.996;6.278;2023-09-08T09:10:29;6.28;;;5.53;;
51862;SDS011;37900;52.996;6.278;2023-09-08T09:12:56;7.55;;;5.47;;
51862;SDS011;37900;52.996;6.278;2023-09-08T09:15:29;6.47;;;5.75;;
51862;SDS011;37900;52.996;6.278;2023-09-08T09:18:04;8.25;;;5.80;;
51862;SDS011;37900;52.996;6.278;2023-09-08T09:20:31;6.10;;;5.50;;
51862;SDS011;37900;52.996;6.278;2023-09-08T09:22:57;7.43;;;5.18;;
51862;SDS011;37900;52.996;6.278;2023-09-08T09:25:24;6.35;;;5.55;;
51862;SDS011;37900;52.996;6.278;2023-09-08T09:27:53;7.43;;;5.25;;
51862;SDS011;37900;52.996;6.278;2023-09-08T09:30:24;6.07;;;5.47;;
51862;SDS011;37900;52.996;6.278;2023-09-08T09:33:00;7.50;;;6.38;;
51862;SDS011;37900;52.996;6.278;2023-09-08T09:35:43;6.70;;;5.80;;
51862;SDS011;37900;52.996;6.278;2023-09-08T09:38:09;6.80;;;5.10;;
51862;SDS011;37900;52.996;6.278;2023-09-08T09:40:35;6.68;;;5.40;;
51862;SDS011;37900;52.996;6.278;2023-09-08T09:43:01;7.80;;;5.85;;
51862;SDS011;37900;52.996;6.278;2023-09-08T09:45:29;7.43;;;5.93;;
51862;SDS011;37900;52.996;6.278;2023-09-08T09:47:56;6.82;;;6.05;;
51862;SDS011;37900;52.996;6.278;2023-09-08T09:50:31;6.68;;;6.07;;
51862;SDS011;37900;52.996;6.278;2023-09-08T09:53:03;6.63;;;5.93;;
51862;SDS011;37900;52.996;6.278;2023-09-08T09:55:36;8.98;;;5.40;;
51862;SDS011;37900;52.996;6.278;2023-09-08T09:58:06;14.90;;;6.82;;
51862;SDS011;37900;52.996;6.278;2023-09-08T10:00:33;6.63;;;5.90;;
51862;SDS011;37900;52.996;6.278;2023-09-08T10:03:00;5.95;;;5.20;;
51862;SDS011;37900;52.996;6.278;2023-09-08T10:05:27;6.57;;;5.90;;
51862;SDS011;37900;52.996;6.278;2023-09-08T10:07:53;6.20;;;5.60;;
51862;SDS011;37900;52.996;6.278;2023-09-08T10:10:19;7.35;;;5.35;;
51862;SDS011;37900;52.996;6.278;2023-09-08T10:12:49;5.65;;;5.05;;
51862;SDS011;37900;52.996;6.278;2023-09-08T10:15:19;7.07;;;5.80;;
51862;SDS011;37900;52.996;6.278;2023-09-08T10:17:47;7.63;;;6.07;;
51862;SDS011;37900;52.996;6.278;2023-09-08T10:20:25;8.02;;;5.75;;
51862;SDS011;37900;52.996;6.278;2023-09-08T10:25:43;7.10;;;5.80;;
51862;SDS011;37900;52.996;6.278;2023-09-08T10:28:18;6.68;;;5.43;;
51862;SDS011;37900;52.996;6.278;2023-09-08T10:30:44;5.82;;;4.78;;
51862;SDS011;37900;52.996;6.278;2023-09-08T10:33:11;5.68;;;5.13;;
51862;SDS011;37900;52.996;6.278;2023-09-08T10:35:37;8.00;;;6.03;;
51862;SDS011;37900;52.996;6.278;2023-09-08T10:40:49;7.60;;;5.63;;
51862;SDS011;37900;52.996;6.278;2023-09-08T10:43:15;6.32;;;5.20;;
51862;SDS011;37900;52.996;6.278;2023-09-08T10:45:42;6.82;;;5.63;;
51862;SDS011;37900;52.996;6.278;2023-09-08T10:48:08;6.15;;;5.38;;
51862;SDS011;37900;52.996;6.278;2023-09-08T10:50:38;6.50;;;5.80;;
51862;SDS011;37900;52.996;6.278;2023-09-08T10:53:13;6.75;;;5.13;;
51862;SDS011;37900;52.996;6.278;2023-09-08T10:55:44;6.55;;;5.70;;
51862;SDS011;37900;52.996;6.278;2023-09-08T10:58:34;6.82;;;5.80;;
51862;SDS011;37900;52.996;6.278;2023-09-08T11:01:02;18.17;;;7.53;;
51862;SDS011;37900;52.996;6.278;2023-09-08T11:06:07;10.07;;;7.10;;
51862;SDS011;37900;52.996;6.278;2023-09-08T11:08:34;9.48;;;6.05;;
51862;SDS011;37900;52.996;6.278;2023-09-08T11:11:02;9.05;;;6.00;;
51862;SDS011;37900;52.996;6.278;2023-09-08T11:13:28;10.93;;;6.50;;
51862;SDS011;37900;52.996;6.278;2023-09-08T11:15:54;10.90;;;6.72;;
51862;SDS011;37900;52.996;6.278;2023-09-08T11:18:26;11.43;;;6.30;;
51862;SDS011;37900;52.996;6.278;2023-09-08T11:20:52;7.93;;;6.22;;
51862;SDS011;37900;52.996;6.278;2023-09-08T11:23:19;6.75;;;5.43;;
51862;SDS011;37900;52.996;6.278;2023-09-08T11:25:46;7.75;;;6.32;;
51862;SDS011;37900;52.996;6.278;2023-09-08T11:28:12;6.25;;;5.65;;
51862;SDS011;37900;52.996;6.278;2023-09-08T11:30:38;6.43;;;5.75;;
51862;SDS011;37900;52.996;6.278;2023-09-08T11:33:13;6.57;;;5.22;;
51862;SDS011;37900;52.996;6.278;2023-09-08T11:35:39;8.80;;;6.40;;
51862;SDS011;37900;52.996;6.278;2023-09-08T11:38:05;6.63;;;5.47;;
51862;SDS011;37900;52.996;6.278;2023-09-08T11:40:34;6.38;;;5.68;;
51862;SDS011;37900;52.996;6.278;2023-09-08T11:43:02;6.88;;;5.88;;
51862;SDS011;37900;52.996;6.278;2023-09-08T11:47:55;7.70;;;5.80;;
51862;SDS011;37900;52.996;6.278;2023-09-08T11:50:22;6.40;;;5.40;;
51862;SDS011;37900;52.996;6.278;2023-09-08T11:52:50;6.18;;;5.50;;
51862;SDS011;37900;52.996;6.278;2023-09-08T11:55:17;6.38;;;5.78;;
51862;SDS011;37900;52.996;6.278;2023-09-08T11:57:45;6.10;;;5.35;;
51862;SDS011;37900;52.996;6.278;2023-09-08T12:00:13;6.72;;;5.57;;
51862;SDS011;37900;52.996;6.278;2023-09-08T12:02:43;6.55;;;5.82;;
51862;SDS011;37900;52.996;6.278;2023-09-08T12:05:13;6.97;;;5.70;;
51862;SDS011;37900;52.996;6.278;2023-09-08T12:07:53;7.07;;;5.72;;
51862;SDS011;37900;52.996;6.278;2023-09-08T12:10:20;6.13;;;5.53;;
51862;SDS011;37900;52.996;6.278;2023-09-08T12:12:47;5.60;;;5.00;;
51862;SDS011;37900;52.996;6.278;2023-09-08T12:17:59;8.07;;;5.63;;
51862;SDS011;37900;52.996;6.278;2023-09-08T12:20:26;6.88;;;5.47;;
51862;SDS011;37900;52.996;6.278;2023-09-08T12:22:53;5.82;;;5.22;;
51862;SDS011;37900;52.996;6.278;2023-09-08T12:25:19;6.53;;;5.55;;
51862;SDS011;37900;52.996;6.278;2023-09-08T12:30:21;5.47;;;4.95;;
51862;SDS011;37900;52.996;6.278;2023-09-08T12:32:55;5.78;;;5.15;;
51862;SDS011;37900;52.996;6.278;2023-09-08T12:37:54;6.20;;;5.28;;
51862;SDS011;37900;52.996;6.278;2023-09-08T12:40:24;6.13;;;5.47;;
51862;SDS011;37900;52.996;6.278;2023-09-08T12:42:50;5.63;;;5.13;;
51862;SDS011;37900;52.996;6.278;2023-09-08T12:45:16;5.85;;;5.25;;
51862;SDS011;37900;52.996;6.278;2023-09-08T12:47:42;6.53;;;5.70;;
51862;SDS011;37900;52.996;6.278;2023-09-08T12:50:09;6.60;;;5.20;;
51862;SDS011;37900;52.996;6.278;2023-09-08T12:52:35;6.47;;;5.13;;
51862;SDS011;37900;52.996;6.278;2023-09-08T12:55:00;6.18;;;5.57;;
51862;SDS011;37900;52.996;6.278;2023-09-08T12:57:26;5.97;;;5.35;;
51862;SDS011;37900;52.996;6.278;2023-09-08T12:59:52;5.90;;;5.15;;
51862;SDS011;37900;52.996;6.278;2023-09-08T13:02:18;5.50;;;5.00;;
51862;SDS011;37900;52.996;6.278;2023-09-08T13:04:43;6.20;;;5.60;;
51862;SDS011;37900;52.996;6.278;2023-09-08T13:07:16;7.20;;;5.38;;
51862;SDS011;37900;52.996;6.278;2023-09-08T13:09:43;5.40;;;4.90;;
51862;SDS011;37900;52.996;6.278;2023-09-08T13:12:09;5.05;;;4.55;;
51862;SDS011;37900;52.996;6.278;2023-09-08T13:14:36;5.90;;;4.95;;
51862;SDS011;37900;52.996;6.278;2023-09-08T13:17:02;5.70;;;4.95;;
51862;SDS011;37900;52.996;6.278;2023-09-08T13:19:28;5.40;;;4.90;;
51862;SDS011;37900;52.996;6.278;2023-09-08T13:21:54;5.63;;;4.97;;
51862;SDS011;37900;52.996;6.278;2023-09-08T13:24:20;5.57;;;4.80;;
51862;SDS011;37900;52.996;6.278;2023-09-08T13:26:47;6.53;;;5.30;;
51862;SDS011;37900;52.996;6.278;2023-09-08T13:29:13;6.13;;;5.20;;
51862;SDS011;37900;52.996;6.278;2023-09-08T13:31:39;5.53;;;4.72;;
51862;SDS011;37900;52.996;6.278;2023-09-08T13:34:05;7.97;;;4.70;;
51862;SDS011;37900;52.996;6.278;2023-09-08T13:36:31;5.55;;;4.95;;
51862;SDS011;37900;52.996;6.278;2023-09-08T13:38:57;6.63;;;5.75;;
51862;SDS011;37900;52.996;6.278;2023-09-08T13:41:29;5.40;;;4.90;;
51862;SDS011;37900;52.996;6.278;2023-09-08T13:44:12;6.05;;;5.38;;
51862;SDS011;37900;52.996;6.278;2023-09-08T13:46:38;6.60;;;5.30;;
51862;SDS011;37900;52.996;6.278;2023-09-08T13:49:04;5.40;;;4.90;;
51862;SDS011;37900;52.996;6.278;2023-09-08T13:51:29;6.38;;;4.90;;
51862;SDS011;37900;52.996;6.278;2023-09-08T13:53:56;5.07;;;4.57;;
51862;SDS011;37900;52.996;6.278;2023-09-08T13:56:22;5.57;;;4.95;;
51862;SDS011;37900;52.996;6.278;2023-09-08T13:58:48;5.47;;;4.97;;
51862;SDS011;37900;52.996;6.278;2023-09-08T14:01:13;7.68;;;5.00;;
51862;SDS011;37900;52.996;6.278;2023-09-08T14:03:39;6.18;;;5.57;;
51862;SDS011;37900;52.996;6.278;2023-09-08T14:06:04;5.53;;;5.03;;
51862;SDS011;37900;52.996;6.278;2023-09-08T14:08:30;5.15;;;4.53;;
51862;SDS011;37900;52.996;6.278;2023-09-08T14:10:56;5.90;;;5.30;;
51862;SDS011;37900;52.996;6.278;2023-09-08T14:13:22;6.07;;;4.88;;
51862;SDS011;37900;52.996;6.278;2023-09-08T14:15:47;5.68;;;5.18;;
51862;SDS011;37900;52.996;6.278;2023-09-08T14:18:13;5.05;;;4.55;;
51862;SDS011;37900;52.996;6.278;2023-09-08T14:20:42;5.38;;;4.82;;
51862;SDS011;37900;52.996;6.278;2023-09-08T14:23:08;5.50;;;4.95;;
51862;SDS011;37900;52.996;6.278;2023-09-08T14:25:34;5.13;;;4.63;;
51862;SDS011;37900;52.996;6.278;2023-09-08T14:28:00;5.43;;;4.93;;
51862;SDS011;37900;52.996;6.278;2023-09-08T14:30:29;6.38;;;5.20;;
51862;SDS011;37900;52.996;6.278;2023-09-08T14:32:55;5.32;;;4.82;;
51862;SDS011;37900;52.996;6.278;2023-09-08T14:35:21;6.28;;;5.43;;
51862;SDS011;37900;52.996;6.278;2023-09-08T14:37:47;5.65;;;5.13;;
51862;SDS011;37900;52.996;6.278;2023-09-08T14:40:13;5.47;;;4.97;;
51862;SDS011;37900;52.996;6.278;2023-09-08T14:42:40;5.43;;;4.55;;
51862;SDS011;37900;52.996;6.278;2023-09-08T14:45:06;5.47;;;4.97;;
51862;SDS011;37900;52.996;6.278;2023-09-08T14:47:32;5.70;;;5.10;;
51862;SDS011;37900;52.996;6.278;2023-09-08T14:53:33;5.95;;;5.07;;
51862;SDS011;37900;52.996;6.278;2023-09-08T14:55:59;5.65;;;5.05;;
51862;SDS011;37900;52.996;6.278;2023-09-08T14:58:25;5.30;;;4.80;;
51862;SDS011;37900;52.996;6.278;2023-09-08T15:00:56;5.75;;;4.88;;
51862;SDS011;37900;52.996;6.278;2023-09-08T15:03:24;5.65;;;5.10;;
51862;SDS011;37900;52.996;6.278;2023-09-08T15:05:50;5.95;;;5.28;;
51862;SDS011;37900;52.996;6.278;2023-09-08T15:08:16;5.88;;;4.75;;
51862;SDS011;37900;52.996;6.278;2023-09-08T15:10:42;5.82;;;5.32;;
51862;SDS011;37900;52.996;6.278;2023-09-08T15:13:07;5.85;;;5.35;;
51862;SDS011;37900;52.996;6.278;2023-09-08T15:15:33;6.03;;;5.05;;
51862;SDS011;37900;52.996;6.278;2023-09-08T15:17:59;6.13;;;5.45;;
51862;SDS011;37900;52.996;6.278;2023-09-08T15:20:24;6.47;;;5.75;;